Terminal Aerodrome Forecast
Issued by NWS

Home | Current Version | Previous Version | Text Only | Print | Product List | Glossary On
Versions: 1 2 3 4 5 6 7 8 9 10 11 12 13 14
000
FTUS43 KMQT 231700
TAFSAW
TAF
KSAW 231733Z 2318/2418 04008KT P6SM BKN250
     FM240200 12004KT P6SM BKN200
     FM241600 13011G17KT P6SM OVC060
      AMD LTD TO CLD VIS AND WIND 2402/2410=

USA.gov is the U.S. government's official web portal to all federal, state and local government web resources and services.